This is the latest recevied weather packets stored in our database for station/object G6LTT-13. If no packets are shown the sender has not sent any weather packets the latest 10 day(s).
| Time | Temp. | Humidity | Pressure | Rain* | Wind** | Luminosity | Snow |
|---|---|---|---|---|---|---|---|
| 1778002480 | 15.56° C | 55% | 1039.9 hPa | 0 mm | - | - | - |
| 1778000680 | 15.56° C | 54% | 1039.7 hPa | 0 mm | - | - | - |
| 1777998880 | 15.56° C | 52% | 1039.7 hPa | 0 mm | - | - | - |
| 1777997080 | 15.56° C | 47% | 1039.5 hPa | 0 mm | - | - | - |
| 1777995280 | 16.11° C | 48% | 1039.6 hPa | 0 mm | - | - | - |
| 1777993480 | 16.67° C | 47% | 1039.7 hPa | 0 mm | - | - | - |
| 1777991680 | 16.67° C | 47% | 1039.9 hPa | 0 mm | - | - | - |
| 1777989880 | 17.22° C | 45% | 1040.3 hPa | 0 mm | - | - | - |
| 1777988080 | 16.11° C | 51% | 1040.4 hPa | 0 mm | - | - | - |
| 1777986280 | 15.56° C | 54% | 1040.5 hPa | 0 mm | - | - | - |
| 1777984480 | 15° C | 57% | 1040.8 hPa | 0 mm | - | - | - |
| 1777982680 | 15.56° C | 55% | 1040.7 hPa | 0 mm | - | - | - |
| 1777980880 | 17.22° C | 49% | 1040.7 hPa | 0 mm | - | - | - |
| 1777979080 | 15.56° C | 58% | 1040.9 hPa | 0 mm | - | - | - |
| 1777977280 | 16.11° C | 55% | 1041 hPa | 0 mm | - | - | - |
| 1777975480 | 15° C | 59% | 1041.3 hPa | 0 mm | - | - | - |
| 1777973680 | 13.33° C | 69% | 1041.6 hPa | 0 mm | - | - | - |
| 1777971880 | 12.22° C | 75% | 1041.5 hPa | 0 mm | - | - | - |
| 1777970080 | 12.22° C | 76% | 1041.9 hPa | 0 mm | - | - | - |
| 1777968280 | 11.67° C | 80% | 1041.6 hPa | 0 mm | - | - | - |
| 1777966480 | 11.11° C | 82% | 1041.3 hPa | 0 mm | - | - | - |
| 1777964680 | 10.56° C | 86% | 1041.8 hPa | 0 mm | - | - | - |
| 1777962880 | 10.56° C | 87% | 1042 hPa | 0 mm | - | - | - |
| 1777961080 | 10° C | 87% | 1041.7 hPa | 0 mm | - | - | - |
| 1777959280 | 10° C | 88% | 1042 hPa | 0 mm | - | - | - |
* Rain latest hour (hover to see other rain measurements)
** Current wind speed in m/s (hover to see current wind gust speed)